Budapest Bridge — VRIZ5 — position and weather

sailwx.info

Track history (hours):
 
Tides and Currents Weather Stations Pressure Air Temp Water Temp Dewpoint Dewpoint Depression Visibility Wind Speed Wind Dir Waves Ship Positions

Budapest Bridge

Last reported at 2017-Oct-14 12:54 UTC. Time now 2017-Oct-20 05:00 UTC.
Position N 35°22' W 008°22'.

Length 268 m; draft 12 m.

Type: Ship (hazmat cat A). MMSI: 477434200.

Date/timePositionNaut miles runAvg speedWind from/ knotsBaromVisibWave heightAir tempDewpointWater temp
2017-Oct-14 12:54N 35°22' W 008°22'821.0
2017-Oct-14 12:30N 35°25' W 008°12'3820.8
2017-Oct-14 10:40N 35°37' W 007°28'420.8
2017-Oct-14 10:28N 35°38' W 007°23'1220.5
2017-Oct-14 09:52N 35°42' W 007°09'821.4
2017-Oct-14 09:30N 35°45' W 006°59'2821.6
2017-Oct-14 08:12N 35°54' W 006°27'421.0
2017-Oct-14 08:00N 35°55' W 006°22'1121.1
2017-Oct-14 07:29N 35°57' W 006°09'2621.5
2017-Oct-14 06:17N 35°57' W 005°36'621.2
2017-Oct-14 06:00N 35°59' W 005°30'1020.3
2017-Oct-14 05:30N 36°03' W 005°18'17819.9
2017-Oct-13 20:36N 36°45' W 001°44'421.5
2017-Oct-13 20:25N 36°48' W 001°40'921.4
2017-Oct-13 20:00N 36°54' W 001°32'3620.9
2017-Oct-13 18:17N 37°18' W 000°59'621.2
2017-Oct-13 18:00N 37°22' W 000°53'1020.5
2017-Oct-13 17:30N 37°28' W 000°43'1020.6
2017-Oct-13 17:00N 37°35' W 000°33'1020.6
2017-Oct-13 16:30N 37°44' W 000°27'1020.7
2017-Oct-13 16:00N 37°52' W 000°18'1020.9
2017-Oct-13 15:30N 38°00' W 000°11'1020.9
2017-Oct-13 15:00N 38°09' W 000°03'1120.9
2017-Oct-13 14:30N 38°18' E 000°04'1020.7
2017-Oct-13 14:00N 38°26' E 000°11'1020.2
2017-Oct-13 13:30N 38°35' E 000°18'1019.8
2017-Oct-13 13:00N 38°44' E 000°24'1020.1
2017-Oct-13 12:30N 38°52' E 000°32'18920.1
2017-Oct-13 03:07N 41°18' E 003°08'320.1
2017-Oct-13 02:59N 41°20' E 003°10'1120.2
2017-Oct-13 02:28N 41°29' E 003°19'2119.9
2017-Oct-13 01:24N 41°45' E 003°37'2620.4
2017-Oct-13 00:07N 42°06' E 003°58'2320.5
2017-Oct-12 22:59N 42°25' E 004°16'2320.8
2017-Oct-12 21:52N 42°44' E 004°34'821.3
2017-Oct-12 21:31N 42°50' E 004°40'1020.9
2017-Oct-12 21:00N 42°59' E 004°48'1020.8
2017-Oct-12 20:31N 43°07' E 004°57'1020.5
2017-Oct-12 20:01N 43°17' E 004°59'713.6
2017-Oct-12 19:30N 43°23' E 004°56'4 8.3
2017-Oct-12 19:00N 43°24' E 004°51'0 0.0
2017-Oct-12 18:31N 43°24' E 004°51'0 0.0
2017-Oct-12 17:57N 43°24' E 004°51'0 0.0
2017-Oct-12 17:31N 43°24' E 004°51'0 0.0
2017-Oct-12 16:58N 43°24' E 004°51'0 0.0
2017-Oct-12 16:31N 43°24' E 004°51'0 0.0
2017-Oct-12 16:01N 43°24' E 004°51'0 0.0
2017-Oct-12 15:31N 43°24' E 004°51'0 0.0
2017-Oct-12 14:58N 43°24' E 004°51'0 0.0
2017-Oct-12 14:28N 43°24' E 004°51'0 0.0
2017-Oct-12 14:01N 43°24' E 004°51'0 0.0
2017-Oct-12 13:28N 43°24' E 004°51'0 0.0
2017-Oct-12 13:01N 43°24' E 004°51'0 0.0
2017-Oct-12 12:28N 43°24' E 004°51'0 0.0
2017-Oct-12 11:55N 43°24' E 004°51'0 0.0
2017-Oct-12 11:31N 43°24' E 004°51'0 0.0
2017-Oct-12 11:00N 43°24' E 004°51'0 0.0
2017-Oct-12 10:28N 43°24' E 004°51'0 0.0
2017-Oct-12 09:58N 43°24' E 004°51'0 0.0
2017-Oct-12 09:28N 43°24' E 004°51'0 0.0
2017-Oct-12 08:58N 43°24' E 004°51'0 0.0
2017-Oct-12 08:28N 43°24' E 004°51'0 0.0
2017-Oct-12 07:58N 43°24' E 004°51'0 0.0
2017-Oct-12 07:31N 43°24' E 004°51'183 5.8
2017-Oct-11 00:00N 44°14' E 008°56'815.1
2017-Oct-10 23:30N 44°22' E 008°57'3 6.5
2017-Oct-10 22:59N 44°24' E 008°54'0 0.2
2017-Oct-10 22:29N 44°24' E 008°54'0 0.0
2017-Oct-10 21:56N 44°24' E 008°54'0 0.0
2017-Oct-10 21:29N 44°24' E 008°54'0 0.0
2017-Oct-10 20:59N 44°24' E 008°54'0 0.0
2017-Oct-10 20:29N 44°24' E 008°54'0 0.0
2017-Oct-10 19:59N 44°24' E 008°54'0 0.0
2017-Oct-10 19:29N 44°24' E 008°54'0 0.0
2017-Oct-10 18:59N 44°24' E 008°54'0 0.0
2017-Oct-10 18:29N 44°24' E 008°54'0 0.0
2017-Oct-10 17:59N 44°24' E 008°54'0 0.0
2017-Oct-10 17:26N 44°24' E 008°54'0 0.0
2017-Oct-10 16:56N 44°24' E 008°54'0 0.0
2017-Oct-10 16:26N 44°24' E 008°54'0 0.0
2017-Oct-10 15:59N 44°24' E 008°54'0 0.0
2017-Oct-10 15:29N 44°24' E 008°54'0 0.0
2017-Oct-10 14:59N 44°24' E 008°54'0 0.0
2017-Oct-10 13:59N 44°24' E 008°54'0 0.0
2017-Oct-10 13:29N 44°24' E 008°54'0 0.0
2017-Oct-10 12:59N 44°24' E 008°54'0 0.0
2017-Oct-10 12:29N 44°24' E 008°54'0 0.0
2017-Oct-10 11:59N 44°24' E 008°54'0 0.0
2017-Oct-10 11:29N 44°24' E 008°54'0 0.0
2017-Oct-10 10:59N 44°24' E 008°54'0 0.0
2017-Oct-10 10:29N 44°24' E 008°54'0 0.0
2017-Oct-10 09:59N 44°24' E 008°54'0 0.0
2017-Oct-10 09:29N 44°24' E 008°54'0 0.0
2017-Oct-10 08:59N 44°24' E 008°54'0 0.0
2017-Oct-10 08:29N 44°24' E 008°54'0 0.0
2017-Oct-10 07:56N 44°24' E 008°54'0 0.0
2017-Oct-10 07:29N 44°24' E 008°54'0 0.0
2017-Oct-10 07:00N 44°24' E 008°54'0 0.2
2017-Oct-10 06:30N 44°24' E 008°54'2 3.6
2017-Oct-10 06:00N 44°24' E 008°56'3 6.5
2017-Oct-10 05:30N 44°21' E 008°59'0 0.2
2017-Oct-10 05:00N 44°21' E 008°59'3 5.5
2017-Oct-10 04:30N 44°18' E 008°60'2 3.9
2017-Oct-10 04:00N 44°16' E 008°59'0 0.1
2017-Oct-10 03:30N 44°16' E 008°59'0 0.1
2017-Oct-10 03:00N 44°16' E 008°59'0 0.1
2017-Oct-10 02:30N 44°16' E 008°59'0 0.1
2017-Oct-10 02:00N 44°16' E 008°59'0 0.1
2017-Oct-10 01:30N 44°16' E 008°59'0 0.1
2017-Oct-10 01:00N 44°16' E 008°59'0 0.1
2017-Oct-10 00:30N 44°16' E 008°59'0 0.1
2017-Oct-10 00:00N 44°16' E 008°59'0 0.0
2017-Oct-09 23:30N 44°16' E 008°59'0 0.1
2017-Oct-09 23:00N 44°16' E 008°59'0 0.2
2017-Oct-09 22:30N 44°16' E 008°59'0 0.5
2017-Oct-09 22:00N 44°16' E 008°59'1 1.7
2017-Oct-09 21:30N 44°17' E 008°58'4 7.8
2017-Oct-09 21:00N 44°15' E 009°03'714.4
2017-Oct-09 20:30N 44°12' E 009°12'714.3
2017-Oct-09 20:00N 44°08' E 009°21'714.3
2017-Oct-09 19:30N 44°05' E 009°30'714.2
2017-Oct-09 19:00N 44°01' E 009°38'713.8
2017-Oct-09 18:30N 43°60' E 009°48'510.2
2017-Oct-09 18:00N 44°04' E 009°51'2 4.3
2017-Oct-09 17:27N 44°06' E 009°51'0 0.0
2017-Oct-09 17:00N 44°06' E 009°51'0 0.0
2017-Oct-09 16:30N 44°06' E 009°51'0 0.0
2017-Oct-09 16:00N 44°06' E 009°51'0 0.0
2017-Oct-09 15:30N 44°06' E 009°51'0 0.0
2017-Oct-09 14:57N 44°06' E 009°51'0 0.0
2017-Oct-09 14:30N 44°06' E 009°51'0 0.0
2017-Oct-09 13:34N 44°06' E 009°51'0 0.0
2017-Oct-09 13:30N 44°06' E 009°51'0 0.0
2017-Oct-09 13:00N 44°06' E 009°51'0 0.0
2017-Oct-09 12:27N 44°06' E 009°51'0 0.0
2017-Oct-09 12:00N 44°06' E 009°51'0 0.0
2017-Oct-09 11:30N 44°06' E 009°51'0 0.0
2017-Oct-09 11:00N 44°06' E 009°51'0 0.0
2017-Oct-09 10:27N 44°06' E 009°51'0 0.0
2017-Oct-09 09:57N 44°06' E 009°51'0 0.0
2017-Oct-09 09:27N 44°06' E 009°51'0 0.0
2017-Oct-09 09:00N 44°06' E 009°51'0 0.0
2017-Oct-09 08:31N 44°06' E 009°51'0 0.0
2017-Oct-09 08:01N 44°06' E 009°51'0 0.0
2017-Oct-09 07:21N 44°06' E 009°51'0 0.0
2017-Oct-09 06:54N 44°06' E 009°51'0 0.0
2017-Oct-09 06:27N 44°06' E 009°51'0 0.0
2017-Oct-09 06:00N 44°06' E 009°51'0 0.0
2017-Oct-09 05:31N 44°06' E 009°51'0 0.0
2017-Oct-09 05:01N 44°06' E 009°51'0 0.0
2017-Oct-09 04:30N 44°06' E 009°51'0 0.0
2017-Oct-09 03:58N 44°06' E 009°51'0 0.1
2017-Oct-09 03:30N 44°06' E 009°51'0 0.1
2017-Oct-09 02:57N 44°06' E 009°51'0 0.0
2017-Oct-09 02:31N 44°06' E 009°51'0 0.0
2017-Oct-09 01:57N 44°06' E 009°51'0 0.0
2017-Oct-09 01:31N 44°06' E 009°51'0 0.0
2017-Oct-09 00:51N 44°06' E 009°51'0 0.0
2017-Oct-09 00:30N 44°06' E 009°51'0 0.0
2017-Oct-09 00:00N 44°06' E 009°51'0 0.0
2017-Oct-08 23:31N 44°06' E 009°51'0 0.0
2017-Oct-08 23:00N 44°06' E 009°51'0 0.0
2017-Oct-08 22:30N 44°06' E 009°51'0 0.0
2017-Oct-08 22:00N 44°06' E 009°51'0 0.0
2017-Oct-08 21:27N 44°06' E 009°51'0 0.0
2017-Oct-08 21:00N 44°06' E 009°51'0 0.0
2017-Oct-08 20:31N 44°06' E 009°51'0 0.0
2017-Oct-08 20:00N 44°06' E 009°51'0 0.0
2017-Oct-08 19:30N 44°06' E 009°51'0 0.0
2017-Oct-08 18:54N 44°06' E 009°51'0 0.0
2017-Oct-08 18:30N 44°06' E 009°51'0 0.0
2017-Oct-08 17:54N 44°06' E 009°51'0 0.0
2017-Oct-08 17:31N 44°06' E 009°51'0 0.0
2017-Oct-08 17:00N 44°06' E 009°51'0 0.0
2017-Oct-08 16:30N 44°06' E 009°51'0 0.0
2017-Oct-08 16:00N 44°06' E 009°51'0 0.0
2017-Oct-08 15:30N 44°06' E 009°51'0 0.0
2017-Oct-08 15:00N 44°06' E 009°51'1 1.5
2017-Oct-08 14:30N 44°06' E 009°51'4 7.2
2017-Oct-08 14:00N 44°03' E 009°53'3 5.4
2017-Oct-08 13:30N 44°00' E 009°55'1 1.1
2017-Oct-08 13:00N 44°00' E 009°56'1 1.1
2017-Oct-08 12:30N 43°60' E 009°56'0 0.8
2017-Oct-08 12:00N 43°60' E 009°56'0 0.7
2017-Oct-08 11:30N 43°59' E 009°55'1 1.5
2017-Oct-08 10:59N 43°59' E 009°55'1 1.1
2017-Oct-08 10:30N 43°59' E 009°55'1 1.3
2017-Oct-08 10:00N 43°60' E 009°55'510.6
2017-Oct-08 09:30N 43°55' E 009°55'816.2
2017-Oct-08 09:00N 43°47' E 009°53'816.0
2017-Oct-08 08:30N 43°39' E 009°52'713.0
2017-Oct-08 08:00N 43°33' E 009°57'815.3
2017-Oct-08 07:30N 43°30' E 010°06'815.0
2017-Oct-08 07:00N 43°32' E 010°16'2 4.5
2017-Oct-08 06:30N 43°34' E 010°18'1 1.0
2017-Oct-08 05:52N 43°35' E 010°18'0 0.0
2017-Oct-08 05:19N 43°35' E 010°18'0 0.0
2017-Oct-08 04:58N 43°35' E 010°18'0 0.0
2017-Oct-08 04:28N 43°35' E 010°18'0 0.0
2017-Oct-08 03:58N 43°35' E 010°18'0 0.0
2017-Oct-08 03:28N 43°35' E 010°18'0 0.0
2017-Oct-08 02:55N 43°35' E 010°18'0 0.0
2017-Oct-08 02:28N 43°35' E 010°18'0 0.0
2017-Oct-08 01:58N 43°35' E 010°18'0 0.0
2017-Oct-08 01:28N 43°35' E 010°18'0 0.0
2017-Oct-08 00:58N 43°35' E 010°18'0 0.0
2017-Oct-08 00:25N 43°35' E 010°18'0 0.0
2017-Oct-07 23:55N 43°35' E 010°18'0 0.0
2017-Oct-07 23:28N 43°35' E 010°18'0 0.0
2017-Oct-07 22:58N 43°35' E 010°18'0 0.0
2017-Oct-07 22:28N 43°35' E 010°18'0 0.0
2017-Oct-07 21:55N 43°35' E 010°18'0 0.0
2017-Oct-07 21:28N 43°35' E 010°18'0 0.0
2017-Oct-07 20:58N 43°35' E 010°18'0 0.0
2017-Oct-07 20:28N 43°35' E 010°18'0 0.0
2017-Oct-07 19:58N 43°35' E 010°18'0 0.0
2017-Oct-07 19:28N 43°35' E 010°18'0 0.0
2017-Oct-07 18:58N 43°35' E 010°18'0 0.0
2017-Oct-07 18:28N 43°35' E 010°18'0 0.0
2017-Oct-07 17:58N 43°35' E 010°18'0 0.0
2017-Oct-07 17:28N 43°35' E 010°18'0 0.0
2017-Oct-07 16:58N 43°35' E 010°18'0 0.0
2017-Oct-07 16:25N 43°35' E 010°18'0 0.0
2017-Oct-07 15:55N 43°35' E 010°18'0 0.0
2017-Oct-07 15:25N 43°35' E 010°18'0 0.0
2017-Oct-07 14:58N 43°35' E 010°18'0 0.0
2017-Oct-07 14:28N 43°35' E 010°18'0 0.0
2017-Oct-07 13:58N 43°35' E 010°18'0 0.0
2017-Oct-07 13:28N 43°35' E 010°18'0 0.0
2017-Oct-07 12:58N 43°35' E 010°18'0 0.0
2017-Oct-07 12:25N 43°35' E 010°18'0 0.0
2017-Oct-07 11:58N 43°35' E 010°18'0 0.0
2017-Oct-07 11:28N 43°35' E 010°18'0 0.0
2017-Oct-07 10:58N 43°35' E 010°18'0 0.0
2017-Oct-07 10:28N 43°35' E 010°18'0 0.0
2017-Oct-07 09:58N 43°35' E 010°18'0 0.0
2017-Oct-07 09:28N 43°35' E 010°18'0 0.0
2017-Oct-07 08:55N 43°35' E 010°18'0 0.0
2017-Oct-07 08:28N 43°35' E 010°18'0 0.0
2017-Oct-07 07:58N 43°35' E 010°18'0 0.0
2017-Oct-07 07:28N 43°35' E 010°18'0 0.0
2017-Oct-07 06:58N 43°35' E 010°18'0 0.0
2017-Oct-07 06:30N 43°35' E 010°18'1 1.9
2017-Oct-07 06:00N 43°34' E 010°18'3 5.7
2017-Oct-07 05:30N 43°31' E 010°15'1 1.3
2017-Oct-07 05:00N 43°31' E 010°15'2 3.9
2017-Oct-07 04:31N 43°30' E 010°13'1 2.4
2017-Oct-07 04:00N 43°29' E 010°12'0 0.5
2017-Oct-07 03:30N 43°29' E 010°13'0 0.4
2017-Oct-07 03:00N 43°28' E 010°13'2 4.8
2017-Oct-07 02:30N 43°26' E 010°11'612.4
2017-Oct-07 02:00N 43°20' E 010°09'714.5
2017-Oct-07 01:30N 43°13' E 010°06'714.3
2017-Oct-07 01:00N 43°06' E 010°03'714.3
2017-Oct-07 00:30N 42°60' E 010°00'5213.2
2017-Oct-06 20:36N 42°09' E 010°15'814.8
2017-Oct-06 20:03N 42°04' E 010°24'  
Track history (hours):
 
Tides and Currents Weather Stations Pressure Air Temp Water Temp Dewpoint Dewpoint Depression Visibility Wind Speed Wind Dir Waves Ship Positions

Budapest Bridge

Last reported at 2017-Oct-14 12:54 UTC. Time now 2017-Oct-20 05:00 UTC.
Position N 35°22' W 008°22'.

Length 268 m; draft 12 m.

Type: Ship (hazmat cat A). MMSI: 477434200.

Date/timePositionNaut miles runAvg speedWind from/ knotsBaromVisibWave heightAir tempDewpointWater temp
2017-Oct-14 12:54N 35°22' W 008°22'821.0
2017-Oct-14 12:30N 35°25' W 008°12'3820.8
2017-Oct-14 10:40N 35°37' W 007°28'420.8
2017-Oct-14 10:28N 35°38' W 007°23'1220.5
2017-Oct-14 09:52N 35°42' W 007°09'821.4
2017-Oct-14 09:30N 35°45' W 006°59'2821.6
2017-Oct-14 08:12N 35°54' W 006°27'421.0
2017-Oct-14 08:00N 35°55' W 006°22'1121.1
2017-Oct-14 07:29N 35°57' W 006°09'2621.5
2017-Oct-14 06:17N 35°57' W 005°36'621.2
2017-Oct-14 06:00N 35°59' W 005°30'1020.3
2017-Oct-14 05:30N 36°03' W 005°18'17819.9
2017-Oct-13 20:36N 36°45' W 001°44'421.5
2017-Oct-13 20:25N 36°48' W 001°40'921.4
2017-Oct-13 20:00N 36°54' W 001°32'3620.9
2017-Oct-13 18:17N 37°18' W 000°59'621.2
2017-Oct-13 18:00N 37°22' W 000°53'1020.5
2017-Oct-13 17:30N 37°28' W 000°43'1020.6
2017-Oct-13 17:00N 37°35' W 000°33'1020.6
2017-Oct-13 16:30N 37°44' W 000°27'1020.7
2017-Oct-13 16:00N 37°52' W 000°18'1020.9
2017-Oct-13 15:30N 38°00' W 000°11'1020.9
2017-Oct-13 15:00N 38°09' W 000°03'1120.9
2017-Oct-13 14:30N 38°18' E 000°04'1020.7
2017-Oct-13 14:00N 38°26' E 000°11'1020.2
2017-Oct-13 13:30N 38°35' E 000°18'1019.8
2017-Oct-13 13:00N 38°44' E 000°24'1020.1
2017-Oct-13 12:30N 38°52' E 000°32'18920.1
2017-Oct-13 03:07N 41°18' E 003°08'320.1
2017-Oct-13 02:59N 41°20' E 003°10'1120.2
2017-Oct-13 02:28N 41°29' E 003°19'2119.9
2017-Oct-13 01:24N 41°45' E 003°37'2620.4
2017-Oct-13 00:07N 42°06' E 003°58'2320.5
2017-Oct-12 22:59N 42°25' E 004°16'2320.8
2017-Oct-12 21:52N 42°44' E 004°34'821.3
2017-Oct-12 21:31N 42°50' E 004°40'1020.9
2017-Oct-12 21:00N 42°59' E 004°48'1020.8
2017-Oct-12 20:31N 43°07' E 004°57'1020.5
2017-Oct-12 20:01N 43°17' E 004°59'713.6
2017-Oct-12 19:30N 43°23' E 004°56'4 8.3
2017-Oct-12 19:00N 43°24' E 004°51'0 0.0
2017-Oct-12 18:31N 43°24' E 004°51'0 0.0
2017-Oct-12 17:57N 43°24' E 004°51'0 0.0
2017-Oct-12 17:31N 43°24' E 004°51'0 0.0
2017-Oct-12 16:58N 43°24' E 004°51'0 0.0
2017-Oct-12 16:31N 43°24' E 004°51'0 0.0
2017-Oct-12 16:01N 43°24' E 004°51'0 0.0
2017-Oct-12 15:31N 43°24' E 004°51'0 0.0
2017-Oct-12 14:58N 43°24' E 004°51'0 0.0
2017-Oct-12 14:28N 43°24' E 004°51'0 0.0
2017-Oct-12 14:01N 43°24' E 004°51'0 0.0
2017-Oct-12 13:28N 43°24' E 004°51'0 0.0
2017-Oct-12 13:01N 43°24' E 004°51'0 0.0
2017-Oct-12 12:28N 43°24' E 004°51'0 0.0
2017-Oct-12 11:55N 43°24' E 004°51'0 0.0
2017-Oct-12 11:31N 43°24' E 004°51'0 0.0
2017-Oct-12 11:00N 43°24' E 004°51'0 0.0
2017-Oct-12 10:28N 43°24' E 004°51'0 0.0
2017-Oct-12 09:58N 43°24' E 004°51'0 0.0
2017-Oct-12 09:28N 43°24' E 004°51'0 0.0
2017-Oct-12 08:58N 43°24' E 004°51'0 0.0
2017-Oct-12 08:28N 43°24' E 004°51'0 0.0
2017-Oct-12 07:58N 43°24' E 004°51'0 0.0
2017-Oct-12 07:31N 43°24' E 004°51'183 5.8
2017-Oct-11 00:00N 44°14' E 008°56'815.1
2017-Oct-10 23:30N 44°22' E 008°57'3 6.5
2017-Oct-10 22:59N 44°24' E 008°54'0 0.2
2017-Oct-10 22:29N 44°24' E 008°54'0 0.0
2017-Oct-10 21:56N 44°24' E 008°54'0 0.0
2017-Oct-10 21:29N 44°24' E 008°54'0 0.0
2017-Oct-10 20:59N 44°24' E 008°54'0 0.0
2017-Oct-10 20:29N 44°24' E 008°54'0 0.0
2017-Oct-10 19:59N 44°24' E 008°54'0 0.0
2017-Oct-10 19:29N 44°24' E 008°54'0 0.0
2017-Oct-10 18:59N 44°24' E 008°54'0 0.0
2017-Oct-10 18:29N 44°24' E 008°54'0 0.0
2017-Oct-10 17:59N 44°24' E 008°54'0 0.0
2017-Oct-10 17:26N 44°24' E 008°54'0 0.0
2017-Oct-10 16:56N 44°24' E 008°54'0 0.0
2017-Oct-10 16:26N 44°24' E 008°54'0 0.0
2017-Oct-10 15:59N 44°24' E 008°54'0 0.0
2017-Oct-10 15:29N 44°24' E 008°54'0 0.0
2017-Oct-10 14:59N 44°24' E 008°54'0 0.0
2017-Oct-10 13:59N 44°24' E 008°54'0 0.0
2017-Oct-10 13:29N 44°24' E 008°54'0 0.0
2017-Oct-10 12:59N 44°24' E 008°54'0 0.0
2017-Oct-10 12:29N 44°24' E 008°54'0 0.0
2017-Oct-10 11:59N 44°24' E 008°54'0 0.0
2017-Oct-10 11:29N 44°24' E 008°54'0 0.0
2017-Oct-10 10:59N 44°24' E 008°54'0 0.0
2017-Oct-10 10:29N 44°24' E 008°54'0 0.0
2017-Oct-10 09:59N 44°24' E 008°54'0 0.0
2017-Oct-10 09:29N 44°24' E 008°54'0 0.0
2017-Oct-10 08:59N 44°24' E 008°54'0 0.0
2017-Oct-10 08:29N 44°24' E 008°54'0 0.0
2017-Oct-10 07:56N 44°24' E 008°54'0 0.0
2017-Oct-10 07:29N 44°24' E 008°54'0 0.0
2017-Oct-10 07:00N 44°24' E 008°54'0 0.2
2017-Oct-10 06:30N 44°24' E 008°54'2 3.6
2017-Oct-10 06:00N 44°24' E 008°56'3 6.5
2017-Oct-10 05:30N 44°21' E 008°59'0 0.2
2017-Oct-10 05:00N 44°21' E 008°59'3 5.5
2017-Oct-10 04:30N 44°18' E 008°60'2 3.9
2017-Oct-10 04:00N 44°16' E 008°59'0 0.1
2017-Oct-10 03:30N 44°16' E 008°59'0 0.1
2017-Oct-10 03:00N 44°16' E 008°59'0 0.1
2017-Oct-10 02:30N 44°16' E 008°59'0 0.1
2017-Oct-10 02:00N 44°16' E 008°59'0 0.1
2017-Oct-10 01:30N 44°16' E 008°59'0 0.1
2017-Oct-10 01:00N 44°16' E 008°59'0 0.1
2017-Oct-10 00:30N 44°16' E 008°59'0 0.1
2017-Oct-10 00:00N 44°16' E 008°59'0 0.0
2017-Oct-09 23:30N 44°16' E 008°59'0 0.1
2017-Oct-09 23:00N 44°16' E 008°59'0 0.2
2017-Oct-09 22:30N 44°16' E 008°59'0 0.5
2017-Oct-09 22:00N 44°16' E 008°59'1 1.7
2017-Oct-09 21:30N 44°17' E 008°58'4 7.8
2017-Oct-09 21:00N 44°15' E 009°03'714.4
2017-Oct-09 20:30N 44°12' E 009°12'714.3
2017-Oct-09 20:00N 44°08' E 009°21'714.3
2017-Oct-09 19:30N 44°05' E 009°30'714.2
2017-Oct-09 19:00N 44°01' E 009°38'713.8
2017-Oct-09 18:30N 43°60' E 009°48'510.2
2017-Oct-09 18:00N 44°04' E 009°51'2 4.3
2017-Oct-09 17:27N 44°06' E 009°51'0 0.0
2017-Oct-09 17:00N 44°06' E 009°51'0 0.0
2017-Oct-09 16:30N 44°06' E 009°51'0 0.0
2017-Oct-09 16:00N 44°06' E 009°51'0 0.0
2017-Oct-09 15:30N 44°06' E 009°51'0 0.0
2017-Oct-09 14:57N 44°06' E 009°51'0 0.0
2017-Oct-09 14:30N 44°06' E 009°51'0 0.0
2017-Oct-09 13:34N 44°06' E 009°51'0 0.0
2017-Oct-09 13:30N 44°06' E 009°51'0 0.0
2017-Oct-09 13:00N 44°06' E 009°51'0 0.0
2017-Oct-09 12:27N 44°06' E 009°51'0 0.0
2017-Oct-09 12:00N 44°06' E 009°51'0 0.0
2017-Oct-09 11:30N 44°06' E 009°51'0 0.0
2017-Oct-09 11:00N 44°06' E 009°51'0 0.0
2017-Oct-09 10:27N 44°06' E 009°51'0 0.0
2017-Oct-09 09:57N 44°06' E 009°51'0 0.0
2017-Oct-09 09:27N 44°06' E 009°51'0 0.0
2017-Oct-09 09:00N 44°06' E 009°51'0 0.0
2017-Oct-09 08:31N 44°06' E 009°51'0 0.0
2017-Oct-09 08:01N 44°06' E 009°51'0 0.0
2017-Oct-09 07:21N 44°06' E 009°51'0 0.0
2017-Oct-09 06:54N 44°06' E 009°51'0 0.0
2017-Oct-09 06:27N 44°06' E 009°51'0 0.0
2017-Oct-09 06:00N 44°06' E 009°51'0 0.0
2017-Oct-09 05:31N 44°06' E 009°51'0 0.0
2017-Oct-09 05:01N 44°06' E 009°51'0 0.0
2017-Oct-09 04:30N 44°06' E 009°51'0 0.0
2017-Oct-09 03:58N 44°06' E 009°51'0 0.1
2017-Oct-09 03:30N 44°06' E 009°51'0 0.1
2017-Oct-09 02:57N 44°06' E 009°51'0 0.0
2017-Oct-09 02:31N 44°06' E 009°51'0 0.0
2017-Oct-09 01:57N 44°06' E 009°51'0 0.0
2017-Oct-09 01:31N 44°06' E 009°51'0 0.0
2017-Oct-09 00:51N 44°06' E 009°51'0 0.0
2017-Oct-09 00:30N 44°06' E 009°51'0 0.0
2017-Oct-09 00:00N 44°06' E 009°51'0 0.0
2017-Oct-08 23:31N 44°06' E 009°51'0 0.0
2017-Oct-08 23:00N 44°06' E 009°51'0 0.0
2017-Oct-08 22:30N 44°06' E 009°51'0 0.0
2017-Oct-08 22:00N 44°06' E 009°51'0 0.0
2017-Oct-08 21:27N 44°06' E 009°51'0 0.0
2017-Oct-08 21:00N 44°06' E 009°51'0 0.0
2017-Oct-08 20:31N 44°06' E 009°51'0 0.0
2017-Oct-08 20:00N 44°06' E 009°51'0 0.0
2017-Oct-08 19:30N 44°06' E 009°51'0 0.0
2017-Oct-08 18:54N 44°06' E 009°51'0 0.0
2017-Oct-08 18:30N 44°06' E 009°51'0 0.0
2017-Oct-08 17:54N 44°06' E 009°51'0 0.0
2017-Oct-08 17:31N 44°06' E 009°51'0 0.0
2017-Oct-08 17:00N 44°06' E 009°51'0 0.0
2017-Oct-08 16:30N 44°06' E 009°51'0 0.0
2017-Oct-08 16:00N 44°06' E 009°51'0 0.0
2017-Oct-08 15:30N 44°06' E 009°51'0 0.0
2017-Oct-08 15:00N 44°06' E 009°51'1 1.5
2017-Oct-08 14:30N 44°06' E 009°51'4 7.2
2017-Oct-08 14:00N 44°03' E 009°53'3 5.4
2017-Oct-08 13:30N 44°00' E 009°55'1 1.1
2017-Oct-08 13:00N 44°00' E 009°56'1 1.1
2017-Oct-08 12:30N 43°60' E 009°56'0 0.8
2017-Oct-08 12:00N 43°60' E 009°56'0 0.7
2017-Oct-08 11:30N 43°59' E 009°55'1 1.5
2017-Oct-08 10:59N 43°59' E 009°55'1 1.1
2017-Oct-08 10:30N 43°59' E 009°55'1 1.3
2017-Oct-08 10:00N 43°60' E 009°55'510.6
2017-Oct-08 09:30N 43°55' E 009°55'816.2
2017-Oct-08 09:00N 43°47' E 009°53'816.0
2017-Oct-08 08:30N 43°39' E 009°52'713.0
2017-Oct-08 08:00N 43°33' E 009°57'815.3
2017-Oct-08 07:30N 43°30' E 010°06'815.0
2017-Oct-08 07:00N 43°32' E 010°16'2 4.5
2017-Oct-08 06:30N 43°34' E 010°18'1 1.0
2017-Oct-08 05:52N 43°35' E 010°18'0 0.0
2017-Oct-08 05:19N 43°35' E 010°18'0 0.0
2017-Oct-08 04:58N 43°35' E 010°18'0 0.0
2017-Oct-08 04:28N 43°35' E 010°18'0 0.0
2017-Oct-08 03:58N 43°35' E 010°18'0 0.0
2017-Oct-08 03:28N 43°35' E 010°18'0 0.0
2017-Oct-08 02:55N 43°35' E 010°18'0 0.0
2017-Oct-08 02:28N 43°35' E 010°18'0 0.0
2017-Oct-08 01:58N 43°35' E 010°18'0 0.0
2017-Oct-08 01:28N 43°35' E 010°18'0 0.0
2017-Oct-08 00:58N 43°35' E 010°18'0 0.0
2017-Oct-08 00:25N 43°35' E 010°18'0 0.0
2017-Oct-07 23:55N 43°35' E 010°18'0 0.0
2017-Oct-07 23:28N 43°35' E 010°18'0 0.0
2017-Oct-07 22:58N 43°35' E 010°18'0 0.0
2017-Oct-07 22:28N 43°35' E 010°18'0 0.0
2017-Oct-07 21:55N 43°35' E 010°18'0 0.0
2017-Oct-07 21:28N 43°35' E 010°18'0 0.0
2017-Oct-07 20:58N 43°35' E 010°18'0 0.0
2017-Oct-07 20:28N 43°35' E 010°18'0 0.0
2017-Oct-07 19:58N 43°35' E 010°18'0 0.0
2017-Oct-07 19:28N 43°35' E 010°18'0 0.0
2017-Oct-07 18:58N 43°35' E 010°18'0 0.0
2017-Oct-07 18:28N 43°35' E 010°18'0 0.0
2017-Oct-07 17:58N 43°35' E 010°18'0 0.0
2017-Oct-07 17:28N 43°35' E 010°18'0 0.0
2017-Oct-07 16:58N 43°35' E 010°18'0 0.0
2017-Oct-07 16:25N 43°35' E 010°18'0 0.0
2017-Oct-07 15:55N 43°35' E 010°18'0 0.0
2017-Oct-07 15:25N 43°35' E 010°18'0 0.0
2017-Oct-07 14:58N 43°35' E 010°18'0 0.0
2017-Oct-07 14:28N 43°35' E 010°18'0 0.0
2017-Oct-07 13:58N 43°35' E 010°18'0 0.0
2017-Oct-07 13:28N 43°35' E 010°18'0 0.0
2017-Oct-07 12:58N 43°35' E 010°18'0 0.0
2017-Oct-07 12:25N 43°35' E 010°18'0 0.0
2017-Oct-07 11:58N 43°35' E 010°18'0 0.0
2017-Oct-07 11:28N 43°35' E 010°18'0 0.0
2017-Oct-07 10:58N 43°35' E 010°18'0 0.0
2017-Oct-07 10:28N 43°35' E 010°18'0 0.0
2017-Oct-07 09:58N 43°35' E 010°18'0 0.0
2017-Oct-07 09:28N 43°35' E 010°18'0 0.0
2017-Oct-07 08:55N 43°35' E 010°18'0 0.0
2017-Oct-07 08:28N 43°35' E 010°18'0 0.0
2017-Oct-07 07:58N 43°35' E 010°18'0 0.0
2017-Oct-07 07:28N 43°35' E 010°18'0 0.0
2017-Oct-07 06:58N 43°35' E 010°18'0 0.0
2017-Oct-07 06:30N 43°35' E 010°18'1 1.9
2017-Oct-07 06:00N 43°34' E 010°18'3 5.7
2017-Oct-07 05:30N 43°31' E 010°15'1 1.3
2017-Oct-07 05:00N 43°31' E 010°15'2 3.9
2017-Oct-07 04:31N 43°30' E 010°13'1 2.4
2017-Oct-07 04:00N 43°29' E 010°12'0 0.5
2017-Oct-07 03:30N 43°29' E 010°13'0 0.4
2017-Oct-07 03:00N 43°28' E 010°13'2 4.8
2017-Oct-07 02:30N 43°26' E 010°11'612.4
2017-Oct-07 02:00N 43°20' E 010°09'714.5
2017-Oct-07 01:30N 43°13' E 010°06'714.3
2017-Oct-07 01:00N 43°06' E 010°03'714.3
2017-Oct-07 00:30N 42°60' E 010°00'5213.2
2017-Oct-06 20:36N 42°09' E 010°15'814.8
2017-Oct-06 20:03N 42°04' E 010°24'  

Dump ship's entire track history